createdAt,value
2017-07-14T00:01:15.124Z,17.65
2017-07-14T00:03:42.517Z,17.50
2017-07-14T00:06:09.910Z,17.46
2017-07-14T00:08:37.311Z,17.51
2017-07-14T00:11:04.696Z,17.50
2017-07-14T00:13:32.094Z,17.48
2017-07-14T00:15:59.498Z,17.51
2017-07-14T00:18:26.887Z,17.52
2017-07-14T00:20:54.275Z,17.46
2017-07-14T00:23:21.668Z,17.50
2017-07-14T00:25:49.054Z,17.46
2017-07-14T00:28:16.446Z,17.44
2017-07-14T00:30:43.835Z,17.46
2017-07-14T00:33:11.255Z,17.42
2017-07-14T00:35:38.643Z,17.44
2017-07-14T00:38:06.046Z,17.47
2017-07-14T00:40:33.435Z,17.33
2017-07-14T00:43:00.834Z,17.18
2017-07-14T00:45:28.225Z,17.15
2017-07-14T00:47:55.617Z,17.20
2017-07-14T00:50:23.013Z,17.22
2017-07-14T00:52:50.394Z,17.29
2017-07-14T00:55:17.793Z,17.28
2017-07-14T00:57:45.183Z,17.21
2017-07-14T01:00:12.601Z,17.36
2017-07-14T01:02:39.991Z,17.25
2017-07-14T01:05:07.386Z,17.28
2017-07-14T01:07:34.781Z,17.16
2017-07-14T01:10:02.175Z,16.88
2017-07-14T01:12:29.570Z,16.79
2017-07-14T01:14:56.963Z,16.80
2017-07-14T01:17:24.358Z,16.82
2017-07-14T01:19:51.763Z,16.65
2017-07-14T01:22:19.163Z,16.55
2017-07-14T01:24:46.562Z,16.53
2017-07-14T01:27:13.952Z,16.59
2017-07-14T01:29:41.356Z,16.77
2017-07-14T01:32:08.739Z,16.96
2017-07-14T01:34:36.132Z,17.02
2017-07-14T01:37:03.520Z,17.12
2017-07-14T01:39:30.913Z,17.13
2017-07-14T01:41:58.303Z,17.11
2017-07-14T01:44:25.707Z,17.04
2017-07-14T01:46:53.095Z,16.93
2017-07-14T01:49:20.519Z,16.86
2017-07-14T01:51:47.907Z,16.96
2017-07-14T01:54:15.308Z,16.91
2017-07-14T01:56:42.753Z,16.80
2017-07-14T01:59:10.147Z,16.80
2017-07-14T02:01:37.543Z,16.76
2017-07-14T02:04:04.937Z,16.80
2017-07-14T02:06:32.367Z,16.87
2017-07-14T02:08:59.748Z,16.87
2017-07-14T02:11:27.142Z,16.89
2017-07-14T02:13:54.547Z,16.89
2017-07-14T02:16:21.935Z,16.72
2017-07-14T02:18:49.636Z,16.55
2017-07-14T02:21:17.034Z,16.47
2017-07-14T02:23:44.419Z,16.37
2017-07-14T02:26:11.822Z,16.19
2017-07-14T02:28:39.210Z,16.14
2017-07-14T02:31:06.622Z,16.14
2017-07-14T02:33:33.999Z,16.17
2017-07-14T02:36:01.397Z,16.33
2017-07-14T02:38:28.798Z,16.40
2017-07-14T02:40:56.227Z,16.50
2017-07-14T02:43:23.615Z,16.43
2017-07-14T02:45:51.017Z,16.37
2017-07-14T02:48:18.412Z,16.29
2017-07-14T02:50:45.809Z,16.28
2017-07-14T02:53:13.200Z,16.05
2017-07-14T02:55:40.591Z,15.94
2017-07-14T02:58:08.232Z,15.94
2017-07-14T03:00:35.632Z,15.95
2017-07-14T03:03:03.023Z,15.90
2017-07-14T03:05:30.423Z,15.89
2017-07-14T03:07:57.816Z,15.87
2017-07-14T03:10:25.213Z,15.90
2017-07-14T03:12:52.599Z,15.88
2017-07-14T03:15:20.023Z,15.78
2017-07-14T03:17:47.407Z,15.72
2017-07-14T03:20:14.807Z,15.68
2017-07-14T03:22:42.247Z,15.63
2017-07-14T03:25:09.628Z,15.53
2017-07-14T03:27:37.028Z,15.54
2017-07-14T03:30:04.422Z,15.31
2017-07-14T03:32:31.827Z,15.40
2017-07-14T03:34:59.471Z,15.46
2017-07-14T03:37:26.872Z,15.53
2017-07-14T03:39:54.267Z,15.55
2017-07-14T03:42:21.665Z,15.54
2017-07-14T03:44:49.063Z,15.52
2017-07-14T03:47:16.471Z,15.56
2017-07-14T03:49:43.854Z,15.60
2017-07-14T03:52:11.251Z,15.67
2017-07-14T03:54:38.642Z,15.69
2017-07-14T03:57:06.031Z,15.71
2017-07-14T03:59:33.419Z,15.67
2017-07-14T04:02:00.827Z,15.55
2017-07-14T04:04:28.369Z,15.62
2017-07-14T04:06:55.752Z,15.53
2017-07-14T04:09:23.157Z,15.46
2017-07-14T04:11:50.551Z,15.40
2017-07-14T04:14:17.938Z,15.28
2017-07-14T04:16:45.331Z,15.35
2017-07-14T04:19:12.727Z,15.38
2017-07-14T04:21:40.148Z,15.41
2017-07-14T04:24:07.527Z,15.54
2017-07-14T04:26:34.924Z,15.67
2017-07-14T04:29:02.315Z,15.75
2017-07-14T04:31:29.932Z,15.84
2017-07-14T04:33:57.368Z,15.86
2017-07-14T04:36:24.739Z,15.83
2017-07-14T04:38:52.131Z,15.86
2017-07-14T04:41:19.568Z,15.90
2017-07-14T04:43:46.959Z,15.90
2017-07-14T04:46:14.359Z,16.03
2017-07-14T04:48:41.764Z,16.06
2017-07-14T04:53:42.920Z,16.11
2017-07-14T04:56:10.304Z,15.98
2017-07-14T04:58:37.713Z,15.91
2017-07-14T05:01:05.089Z,16.07
2017-07-14T05:03:32.487Z,16.11
2017-07-14T05:05:59.867Z,16.07
2017-07-14T05:08:27.272Z,16.00
2017-07-14T05:10:54.655Z,16.08
2017-07-14T05:13:22.056Z,15.93
2017-07-14T05:15:49.448Z,15.96
2017-07-14T05:18:17.151Z,15.96
2017-07-14T05:20:44.553Z,15.97
2017-07-14T05:23:11.951Z,15.98
2017-07-14T05:25:39.339Z,15.85
2017-07-14T05:28:06.738Z,15.93
2017-07-14T05:30:34.127Z,15.91
2017-07-14T05:33:01.527Z,15.95
2017-07-14T05:35:29.144Z,16.01
2017-07-14T05:37:56.543Z,16.15
2017-07-14T05:40:23.932Z,16.19
2017-07-14T05:42:51.333Z,16.12
2017-07-14T05:45:18.717Z,16.20
2017-07-14T05:47:46.115Z,16.25
2017-07-14T05:50:13.507Z,16.29
2017-07-14T05:52:40.891Z,16.32
2017-07-14T05:55:08.286Z,16.34
2017-07-14T05:57:35.676Z,16.40
2017-07-14T06:00:03.077Z,16.49
2017-07-14T06:02:30.486Z,16.51
2017-07-14T06:04:57.866Z,16.61
2017-07-14T06:07:25.267Z,16.66
2017-07-14T06:09:52.684Z,16.77
2017-07-14T06:12:20.081Z,16.79
2017-07-14T06:14:47.477Z,16.84
2017-07-14T06:17:14.847Z,16.84
2017-07-14T06:19:42.248Z,16.95
2017-07-14T06:22:09.642Z,17.02
2017-07-14T06:24:37.059Z,17.11
2017-07-14T06:27:04.452Z,17.21
2017-07-14T06:29:31.848Z,17.21
2017-07-14T06:31:59.244Z,17.24
2017-07-14T06:34:26.639Z,17.29
2017-07-14T06:36:54.033Z,17.30
2017-07-14T06:39:21.448Z,17.45
2017-07-14T06:41:48.840Z,17.57
2017-07-14T06:44:16.249Z,17.56
2017-07-14T06:46:43.632Z,17.54
2017-07-14T06:49:11.067Z,17.61
2017-07-14T06:51:38.473Z,17.66
2017-07-14T06:54:05.871Z,17.81
2017-07-14T06:56:33.273Z,17.84
2017-07-14T06:59:00.668Z,17.91
2017-07-14T07:01:28.056Z,17.95
2017-07-14T07:03:55.482Z,17.91
2017-07-14T07:06:22.872Z,18.04
2017-07-14T07:08:50.260Z,18.15
2017-07-14T07:11:17.657Z,18.20
2017-07-14T07:13:45.056Z,18.41
2017-07-14T07:16:12.456Z,18.50
2017-07-14T07:18:39.857Z,18.57
2017-07-14T07:21:07.276Z,18.59
2017-07-14T07:23:34.659Z,18.65
2017-07-14T07:26:02.066Z,18.85
2017-07-14T07:28:29.455Z,18.90
2017-07-14T07:30:56.853Z,19.02
2017-07-14T07:33:24.461Z,19.09
2017-07-14T07:35:51.860Z,19.24
2017-07-14T07:38:19.252Z,19.32
2017-07-14T07:40:46.652Z,19.45
2017-07-14T07:43:14.048Z,19.54
2017-07-14T07:45:41.444Z,19.64
2017-07-14T07:48:14.404Z,19.68
2017-07-14T07:50:41.799Z,19.58
2017-07-14T07:53:09.196Z,19.59
2017-07-14T07:55:36.593Z,19.72
2017-07-14T07:58:03.985Z,19.89
2017-07-14T08:00:31.381Z,20.04
2017-07-14T08:03:04.338Z,20.03
2017-07-14T08:05:31.727Z,19.94
2017-07-14T08:07:59.119Z,19.95
2017-07-14T08:10:26.519Z,20.16
2017-07-14T08:12:53.908Z,20.35
2017-07-14T08:15:21.304Z,20.51
2017-07-14T08:17:48.911Z,20.67
2017-07-14T08:20:16.323Z,20.66
2017-07-14T08:22:43.706Z,20.82
2017-07-14T08:25:11.131Z,20.89
2017-07-14T08:27:38.520Z,20.92
2017-07-14T08:30:05.920Z,21.10
2017-07-14T08:32:34.095Z,21.07
2017-07-14T08:35:01.496Z,21.21
2017-07-14T08:37:28.892Z,21.38
2017-07-14T08:39:56.300Z,21.46
2017-07-14T08:42:23.692Z,21.27
2017-07-14T08:44:51.268Z,21.30
2017-07-14T08:47:18.668Z,21.45
2017-07-14T08:49:46.055Z,21.29
2017-07-14T08:52:13.456Z,21.26
2017-07-14T08:54:41.083Z,21.21
2017-07-14T08:57:08.489Z,21.31
2017-07-14T08:59:35.868Z,21.24
2017-07-14T09:02:03.271Z,21.39
2017-07-14T09:04:30.658Z,21.43
2017-07-14T09:06:58.060Z,21.44
2017-07-14T09:09:25.452Z,21.42
2017-07-14T09:11:52.855Z,21.51
2017-07-14T09:14:20.240Z,21.47
2017-07-14T09:16:47.635Z,21.44
2017-07-14T09:19:15.023Z,21.46
2017-07-14T09:21:42.433Z,21.30
2017-07-14T09:24:09.824Z,21.27
2017-07-14T09:26:37.506Z,21.37
2017-07-14T09:29:04.903Z,21.32
2017-07-14T09:31:32.284Z,21.27
2017-07-14T09:33:59.677Z,21.32
2017-07-14T09:36:27.072Z,21.36
2017-07-14T09:38:54.460Z,21.37
2017-07-14T09:41:21.839Z,21.54
2017-07-14T09:43:49.237Z,21.73
2017-07-14T09:46:16.832Z,21.84
2017-07-14T09:48:44.223Z,22.08
2017-07-14T09:51:11.612Z,22.09
2017-07-14T09:53:39.007Z,22.03
2017-07-14T09:56:06.399Z,21.88
2017-07-14T09:58:33.819Z,21.87
2017-07-14T10:01:01.214Z,21.99
2017-07-14T10:03:28.612Z,21.86
2017-07-14T10:05:56.004Z,21.72
2017-07-14T10:08:23.400Z,21.79
2017-07-14T10:10:50.787Z,21.92
2017-07-14T10:13:18.190Z,22.04
2017-07-14T10:15:45.600Z,22.12
2017-07-14T10:18:12.988Z,22.11
2017-07-14T10:20:40.385Z,22.06
2017-07-14T10:23:07.787Z,22.16
2017-07-14T10:25:35.181Z,22.29
2017-07-14T10:28:02.583Z,22.48
2017-07-14T10:30:29.968Z,22.51
2017-07-14T10:32:57.355Z,22.39
2017-07-14T10:35:24.743Z,22.19
2017-07-14T10:37:52.141Z,21.99
2017-07-14T10:40:19.740Z,22.06
2017-07-14T10:42:47.347Z,22.18
2017-07-14T10:45:14.744Z,22.18
2017-07-14T10:47:42.127Z,22.41
2017-07-14T10:50:09.523Z,22.67
2017-07-14T10:52:36.916Z,22.72
2017-07-14T10:55:04.299Z,22.95
2017-07-14T10:57:31.699Z,23.14
2017-07-14T10:59:59.091Z,23.34
2017-07-14T11:02:26.476Z,23.42
2017-07-14T11:04:53.883Z,23.60
2017-07-14T11:07:21.265Z,23.76
2017-07-14T11:09:48.667Z,23.87
2017-07-14T11:12:16.090Z,23.98
2017-07-14T11:14:43.491Z,24.06
2017-07-14T11:17:10.884Z,24.12
2017-07-14T11:19:38.287Z,23.92
2017-07-14T11:22:05.667Z,23.85
2017-07-14T11:24:33.059Z,23.51
2017-07-14T11:27:00.445Z,23.46
2017-07-14T11:29:27.840Z,23.24
2017-07-14T11:31:55.232Z,23.20
2017-07-14T11:34:22.631Z,23.37
2017-07-14T11:36:50.019Z,23.56
2017-07-14T11:39:17.430Z,23.58
2017-07-14T11:41:44.814Z,23.40
2017-07-14T11:44:12.215Z,23.18
2017-07-14T11:46:39.923Z,23.02
2017-07-14T11:49:07.318Z,23.03
2017-07-14T11:51:34.711Z,23.19
2017-07-14T11:54:02.111Z,23.10
2017-07-14T11:56:29.495Z,23.16
2017-07-14T11:58:56.888Z,23.15
2017-07-14T12:01:24.284Z,23.28
2017-07-14T12:03:51.686Z,23.49
2017-07-14T12:06:19.064Z,23.66
2017-07-14T12:08:46.474Z,23.52
2017-07-14T12:11:13.855Z,23.45
2017-07-14T12:13:41.249Z,23.66
2017-07-14T12:16:08.646Z,23.69
2017-07-14T12:18:36.835Z,23.78
2017-07-14T12:21:04.236Z,23.68
2017-07-14T12:23:31.627Z,23.74
2017-07-14T12:25:59.038Z,23.83
2017-07-14T12:28:26.440Z,24.05
2017-07-14T12:30:53.815Z,24.15
2017-07-14T12:33:21.246Z,24.26
2017-07-14T12:35:48.635Z,24.41
2017-07-14T12:38:16.032Z,24.34
2017-07-14T12:40:43.430Z,24.47
2017-07-14T12:43:10.819Z,24.51
2017-07-14T12:45:38.235Z,24.61
2017-07-14T12:48:05.635Z,24.53
2017-07-14T12:50:33.029Z,24.28
2017-07-14T12:53:00.411Z,24.20
2017-07-14T12:55:27.818Z,24.35
2017-07-14T12:57:55.204Z,24.36
2017-07-14T13:00:22.824Z,24.43
2017-07-14T13:02:50.215Z,24.23
2017-07-14T13:05:17.621Z,24.37
2017-07-14T13:07:45.018Z,24.37
2017-07-14T13:10:12.407Z,24.36
2017-07-14T13:12:39.796Z,24.44
2017-07-14T13:15:07.188Z,24.36
2017-07-14T13:17:34.791Z,24.50
2017-07-14T13:20:02.189Z,24.62
2017-07-14T13:22:29.571Z,24.59
2017-07-14T13:24:56.968Z,24.69
2017-07-14T13:27:24.360Z,24.72
2017-07-14T13:29:51.772Z,24.76
2017-07-14T13:32:19.171Z,24.78
2017-07-14T13:34:46.551Z,24.83
2017-07-14T13:37:13.955Z,24.59
2017-07-14T13:39:41.344Z,24.57
2017-07-14T13:42:08.744Z,24.37
2017-07-14T13:44:36.149Z,24.44
2017-07-14T13:47:03.555Z,24.47
2017-07-14T13:49:30.950Z,24.58
2017-07-14T13:51:58.552Z,24.66
2017-07-14T13:54:25.940Z,24.70
2017-07-14T13:56:53.330Z,24.75
2017-07-14T13:59:20.726Z,24.70
2017-07-14T14:01:48.127Z,24.64
2017-07-14T14:04:15.519Z,24.49
2017-07-14T14:06:42.927Z,24.40
2017-07-14T14:09:10.313Z,24.16
2017-07-14T14:11:37.713Z,24.14
2017-07-14T14:14:05.103Z,24.05
2017-07-14T14:16:32.503Z,23.99
2017-07-14T14:18:59.905Z,23.92
2017-07-14T14:21:27.297Z,23.92
2017-07-14T14:23:54.687Z,24.07
2017-07-14T14:26:22.083Z,24.18
2017-07-14T14:28:49.476Z,24.16
2017-07-14T14:31:16.883Z,24.31
2017-07-14T14:33:44.268Z,24.47
2017-07-14T14:36:11.675Z,24.35
2017-07-14T14:38:39.060Z,24.44
2017-07-14T14:41:06.456Z,24.35
2017-07-14T14:43:33.855Z,24.22
2017-07-14T14:46:01.267Z,24.13
2017-07-14T14:48:28.657Z,24.16
2017-07-14T14:50:56.043Z,24.36
2017-07-14T14:53:23.433Z,24.18
2017-07-14T14:55:50.828Z,24.18
2017-07-14T14:58:18.213Z,24.16
2017-07-14T15:00:45.604Z,24.15
2017-07-14T15:03:13.222Z,24.11
2017-07-14T15:05:40.608Z,23.93
2017-07-14T15:08:08.007Z,23.78
2017-07-14T15:10:35.396Z,23.76
2017-07-14T15:13:02.783Z,23.72
2017-07-14T15:15:30.172Z,23.71
2017-07-14T15:17:57.564Z,23.68
2017-07-14T15:20:24.955Z,23.64
2017-07-14T15:22:52.351Z,23.63
2017-07-14T15:25:19.743Z,23.76
2017-07-14T15:27:47.150Z,23.84
2017-07-14T15:30:14.532Z,23.81
2017-07-14T15:32:41.932Z,23.73
2017-07-14T15:35:09.320Z,23.64
2017-07-14T15:37:36.729Z,23.57
2017-07-14T15:40:04.118Z,23.53
2017-07-14T15:42:31.524Z,23.61
2017-07-14T15:44:58.925Z,23.59
2017-07-14T15:47:26.531Z,23.56
2017-07-14T15:49:53.928Z,23.57
2017-07-14T15:52:21.324Z,23.52
2017-07-14T15:54:48.727Z,23.53
2017-07-14T15:57:16.123Z,23.45
2017-07-14T15:59:43.513Z,23.54
2017-07-14T16:02:10.930Z,23.53
2017-07-14T16:04:38.319Z,23.45
2017-07-14T16:07:05.737Z,23.38
2017-07-14T16:09:33.134Z,23.38
2017-07-14T16:12:00.533Z,23.33
2017-07-14T16:14:27.915Z,23.29
2017-07-14T16:16:55.311Z,23.20
2017-07-14T16:19:22.918Z,23.13
2017-07-14T16:21:50.311Z,23.11
2017-07-14T16:24:17.919Z,23.13
2017-07-14T16:26:45.523Z,22.89
2017-07-14T16:29:12.925Z,22.74
2017-07-14T16:31:40.307Z,22.58
2017-07-14T16:34:07.927Z,22.61
2017-07-14T16:36:35.317Z,22.60
2017-07-14T16:39:02.707Z,22.04
2017-07-14T16:41:30.109Z,21.54
2017-07-14T16:43:57.516Z,21.02
2017-07-14T16:46:24.922Z,20.50
2017-07-14T16:48:52.321Z,20.24
2017-07-14T16:51:19.721Z,20.04
2017-07-14T16:53:47.113Z,19.94
2017-07-14T16:56:14.499Z,19.98
2017-07-14T16:58:41.903Z,20.12
2017-07-14T17:01:09.299Z,20.10
2017-07-14T17:03:36.700Z,20.05
2017-07-14T17:06:04.087Z,19.78
2017-07-14T17:08:31.495Z,19.77
2017-07-14T17:10:58.880Z,19.84
2017-07-14T17:13:26.288Z,19.87
2017-07-14T17:15:53.680Z,19.71
2017-07-14T17:18:21.077Z,19.63
2017-07-14T17:20:48.475Z,19.80
2017-07-14T17:23:15.868Z,19.69
2017-07-14T17:25:43.271Z,19.63
2017-07-14T17:28:10.671Z,19.51
2017-07-14T17:30:38.079Z,19.57
2017-07-14T17:33:05.477Z,19.45
2017-07-14T17:35:32.875Z,19.34
2017-07-14T17:38:00.284Z,19.44
2017-07-14T17:40:27.688Z,19.46
2017-07-14T17:42:55.081Z,19.41
2017-07-14T17:45:22.483Z,19.42
2017-07-14T17:47:49.882Z,19.44
2017-07-14T17:50:17.277Z,19.46
2017-07-14T17:52:44.667Z,19.47
2017-07-14T17:55:12.063Z,19.50
2017-07-14T17:57:39.456Z,19.55
2017-07-14T18:00:06.856Z,19.57
2017-07-14T18:02:34.243Z,19.70
2017-07-14T18:05:01.640Z,19.74
2017-07-14T18:07:29.031Z,19.77
2017-07-14T18:09:56.428Z,19.93
2017-07-14T18:12:23.817Z,19.96
2017-07-14T18:14:51.212Z,20.10
2017-07-14T18:17:18.610Z,20.12
2017-07-14T18:19:46.000Z,20.20
2017-07-14T18:22:13.387Z,20.39
2017-07-14T18:24:40.784Z,20.49
2017-07-14T18:27:08.387Z,20.39
2017-07-14T18:29:36.018Z,20.48
2017-07-14T18:32:03.399Z,20.46
2017-07-14T18:34:30.798Z,20.50
2017-07-14T18:36:58.185Z,20.55
2017-07-14T18:39:25.575Z,20.59
2017-07-14T18:41:52.973Z,20.64
2017-07-14T18:44:20.360Z,20.71
2017-07-14T18:46:47.764Z,20.65
2017-07-14T18:49:15.158Z,20.68
2017-07-14T18:51:42.552Z,20.72
2017-07-14T18:54:09.943Z,20.74
2017-07-14T18:56:37.340Z,20.73
2017-07-14T18:59:04.736Z,20.78
2017-07-14T19:01:32.133Z,20.62
2017-07-14T19:03:59.732Z,20.67
2017-07-14T19:06:27.132Z,20.59
2017-07-14T19:08:54.519Z,20.71
2017-07-14T19:11:21.920Z,20.66
2017-07-14T19:13:49.308Z,20.64
2017-07-14T19:16:16.700Z,20.73
2017-07-14T19:18:44.095Z,20.77
2017-07-14T19:21:11.493Z,20.76
2017-07-14T19:23:38.885Z,20.72
2017-07-14T19:26:06.293Z,20.79
2017-07-14T19:28:33.683Z,20.85
2017-07-14T19:31:01.075Z,20.83
2017-07-14T19:33:28.680Z,20.82
2017-07-14T19:35:56.077Z,20.68
2017-07-14T19:38:23.467Z,20.63
2017-07-14T19:40:50.923Z,20.57
2017-07-14T19:43:18.307Z,20.61
2017-07-14T19:45:45.936Z,20.61
2017-07-14T19:48:13.319Z,20.62
2017-07-14T19:50:40.708Z,20.62
2017-07-14T19:53:08.100Z,20.59
2017-07-14T19:55:35.492Z,20.68
2017-07-14T19:58:02.904Z,20.68
2017-07-14T20:00:30.293Z,20.68
2017-07-14T20:02:57.687Z,20.69
2017-07-14T20:05:25.071Z,20.61
2017-07-14T20:07:52.484Z,20.70
2017-07-14T20:10:19.884Z,20.61
2017-07-14T20:12:47.267Z,20.59
2017-07-14T20:15:14.739Z,20.48
2017-07-14T20:17:42.137Z,20.50
2017-07-14T20:20:09.511Z,20.38
2017-07-14T20:22:36.910Z,20.29
2017-07-14T20:25:04.307Z,20.28
2017-07-14T20:27:31.696Z,20.28
2017-07-14T20:29:59.087Z,20.28
2017-07-14T20:32:26.499Z,20.35
2017-07-14T20:34:53.891Z,20.29
2017-07-14T20:37:21.299Z,20.31
2017-07-14T20:39:48.687Z,20.18
2017-07-14T20:42:16.092Z,20.08
2017-07-14T20:44:43.479Z,20.13
2017-07-14T20:47:10.899Z,20.14
2017-07-14T20:49:38.276Z,20.11
2017-07-14T20:52:05.696Z,20.13
2017-07-14T20:54:33.078Z,20.10
2017-07-14T20:57:00.483Z,20.07
2017-07-14T20:59:27.878Z,20.13
2017-07-14T21:01:55.259Z,20.05
2017-07-14T21:04:22.664Z,20.14
2017-07-14T21:06:50.053Z,19.98
2017-07-14T21:09:17.455Z,19.99
2017-07-14T21:11:44.855Z,20.01
2017-07-14T21:14:12.248Z,19.85
2017-07-14T21:16:40.060Z,19.79
2017-07-14T21:19:07.679Z,19.76
2017-07-14T21:21:35.071Z,19.81
2017-07-14T21:24:02.473Z,19.80
2017-07-14T21:26:29.872Z,19.76
2017-07-14T21:28:57.275Z,19.55
2017-07-14T21:31:24.668Z,19.45
2017-07-14T21:33:52.068Z,19.34
2017-07-14T21:36:19.467Z,19.29
2017-07-14T21:38:46.862Z,19.16
2017-07-14T21:41:14.251Z,19.01
2017-07-14T21:43:41.686Z,18.94
2017-07-14T21:46:09.068Z,18.82
2017-07-14T21:48:36.475Z,18.89
2017-07-14T21:51:03.868Z,18.61
2017-07-14T21:53:31.261Z,18.61
2017-07-14T21:55:58.647Z,18.48
2017-07-14T21:58:26.044Z,18.46
2017-07-14T22:00:53.431Z,18.44
2017-07-14T22:03:20.823Z,18.41
2017-07-14T22:05:48.221Z,18.53
2017-07-14T22:08:15.618Z,18.73
2017-07-14T22:10:43.004Z,18.79
2017-07-14T22:13:10.611Z,18.76
2017-07-14T22:15:38.216Z,18.86
2017-07-14T22:18:05.603Z,18.82
2017-07-14T22:20:33.000Z,18.88
2017-07-14T22:23:00.388Z,18.98
2017-07-14T22:25:27.788Z,19.01
2017-07-14T22:27:55.180Z,18.96
2017-07-14T22:30:22.584Z,19.01
2017-07-14T22:32:49.975Z,19.01
2017-07-14T22:35:17.375Z,19.10
2017-07-14T22:37:44.772Z,19.06
2017-07-14T22:40:12.388Z,19.14
2017-07-14T22:42:39.775Z,19.18
2017-07-14T22:45:07.164Z,19.18
2017-07-14T22:47:34.551Z,19.16
2017-07-14T22:50:01.946Z,19.10
2017-07-14T22:52:29.367Z,19.10
2017-07-14T22:54:56.771Z,19.10
2017-07-14T22:57:24.160Z,19.11
2017-07-14T22:59:51.557Z,19.09
2017-07-14T23:02:18.947Z,19.13
2017-07-14T23:04:46.344Z,19.24
2017-07-14T23:07:13.742Z,19.04
2017-07-14T23:09:41.146Z,18.93
2017-07-14T23:12:08.533Z,18.91
2017-07-14T23:14:35.947Z,18.84
2017-07-14T23:17:03.319Z,18.83
2017-07-14T23:19:30.725Z,18.87
2017-07-14T23:21:58.111Z,18.82
2017-07-14T23:24:25.512Z,18.79
2017-07-14T23:26:52.904Z,18.76
2017-07-14T23:29:20.329Z,18.73
2017-07-14T23:31:47.717Z,18.80
2017-07-14T23:34:15.103Z,18.72
2017-07-14T23:36:42.500Z,18.64
2017-07-14T23:39:09.892Z,18.69
2017-07-14T23:41:37.331Z,18.68
2017-07-14T23:44:04.716Z,18.55
2017-07-14T23:46:32.120Z,18.61
2017-07-14T23:48:59.511Z,18.55
2017-07-14T23:51:26.911Z,18.60
2017-07-14T23:53:54.309Z,18.58
2017-07-14T23:56:21.711Z,18.49
2017-07-14T23:58:49.107Z,18.46
